sensor_id;sensor_type;location;lat;lon;timestamp;P1;durP1;ratioP1;P2;durP2;ratioP2
54929;SDS011;40833;53.238;6.576;2023-03-21T00:01:34;41.83;;;18.70;;
54929;SDS011;40833;53.238;6.576;2023-03-21T00:04:00;41.10;;;18.40;;
54929;SDS011;40833;53.238;6.576;2023-03-21T00:06:26;38.97;;;17.93;;
54929;SDS011;40833;53.238;6.576;2023-03-21T00:08:52;41.73;;;18.17;;
54929;SDS011;40833;53.238;6.576;2023-03-21T00:11:17;41.53;;;18.37;;
54929;SDS011;40833;53.238;6.576;2023-03-21T00:13:43;43.67;;;17.83;;
54929;SDS011;40833;53.238;6.576;2023-03-21T00:16:13;37.30;;;17.40;;
54929;SDS011;40833;53.238;6.576;2023-03-21T00:18:41;36.47;;;16.65;;
54929;SDS011;40833;53.238;6.576;2023-03-21T00:21:11;33.63;;;16.70;;
54929;SDS011;40833;53.238;6.576;2023-03-21T00:23:39;34.77;;;15.73;;
54929;SDS011;40833;53.238;6.576;2023-03-21T00:26:05;30.00;;;14.73;;
54929;SDS011;40833;53.238;6.576;2023-03-21T00:28:34;30.97;;;14.97;;
54929;SDS011;40833;53.238;6.576;2023-03-21T00:31:01;33.63;;;16.03;;
54929;SDS011;40833;53.238;6.576;2023-03-21T00:33:26;32.93;;;16.23;;
54929;SDS011;40833;53.238;6.576;2023-03-21T00:35:52;29.83;;;14.53;;
54929;SDS011;40833;53.238;6.576;2023-03-21T00:38:19;32.47;;;15.47;;
54929;SDS011;40833;53.238;6.576;2023-03-21T00:40:46;28.07;;;14.50;;
54929;SDS011;40833;53.238;6.576;2023-03-21T00:43:12;31.67;;;15.47;;
54929;SDS011;40833;53.238;6.576;2023-03-21T00:45:41;34.97;;;14.60;;
54929;SDS011;40833;53.238;6.576;2023-03-21T00:48:08;32.50;;;14.57;;
54929;SDS011;40833;53.238;6.576;2023-03-21T00:50:35;34.00;;;15.37;;
54929;SDS011;40833;53.238;6.576;2023-03-21T00:53:01;40.20;;;15.53;;
54929;SDS011;40833;53.238;6.576;2023-03-21T00:55:27;41.70;;;15.90;;
54929;SDS011;40833;53.238;6.576;2023-03-21T01:01:24;58.90;;;17.93;;
54929;SDS011;40833;53.238;6.576;2023-03-21T01:03:50;70.63;;;19.30;;
54929;SDS011;40833;53.238;6.576;2023-03-21T01:06:27;66.10;;;19.57;;
54929;SDS011;40833;53.238;6.576;2023-03-21T01:08:53;67.40;;;20.47;;
54929;SDS011;40833;53.238;6.576;2023-03-21T01:11:23;77.27;;;21.23;;
54929;SDS011;40833;53.238;6.576;2023-03-21T01:13:50;81.20;;;20.60;;
54929;SDS011;40833;53.238;6.576;2023-03-21T01:16:17;81.80;;;22.30;;
54929;SDS011;40833;53.238;6.576;2023-03-21T01:18:43;93.80;;;23.13;;
54929;SDS011;40833;53.238;6.576;2023-03-21T01:21:12;132.30;;;24.83;;
54929;SDS011;40833;53.238;6.576;2023-03-21T01:23:38;121.47;;;24.67;;
54929;SDS011;40833;53.238;6.576;2023-03-21T01:26:06;106.97;;;25.33;;
54929;SDS011;40833;53.238;6.576;2023-03-21T01:28:33;131.20;;;27.27;;
54929;SDS011;40833;53.238;6.576;2023-03-21T01:31:00;120.70;;;25.93;;
54929;SDS011;40833;53.238;6.576;2023-03-21T01:33:27;140.87;;;26.43;;
54929;SDS011;40833;53.238;6.576;2023-03-21T01:35:53;142.93;;;28.17;;
54929;SDS011;40833;53.238;6.576;2023-03-21T01:38:19;135.80;;;27.43;;
54929;SDS011;40833;53.238;6.576;2023-03-21T01:40:46;122.17;;;26.97;;
54929;SDS011;40833;53.238;6.576;2023-03-21T01:46:05;118.17;;;26.63;;
54929;SDS011;40833;53.238;6.576;2023-03-21T01:48:45;99.23;;;24.93;;
54929;SDS011;40833;53.238;6.576;2023-03-21T01:51:14;118.03;;;26.77;;
54929;SDS011;40833;53.238;6.576;2023-03-21T01:53:41;103.43;;;25.03;;
54929;SDS011;40833;53.238;6.576;2023-03-21T01:56:11;83.77;;;23.13;;
54929;SDS011;40833;53.238;6.576;2023-03-21T01:58:41;79.80;;;22.57;;
54929;SDS011;40833;53.238;6.576;2023-03-21T02:01:09;68.13;;;19.47;;
54929;SDS011;40833;53.238;6.576;2023-03-21T02:03:37;61.67;;;20.43;;
54929;SDS011;40833;53.238;6.576;2023-03-21T02:06:14;79.23;;;22.60;;
54929;SDS011;40833;53.238;6.576;2023-03-21T02:08:46;81.83;;;21.17;;
54929;SDS011;40833;53.238;6.576;2023-03-21T02:11:12;78.43;;;22.03;;
54929;SDS011;40833;53.238;6.576;2023-03-21T02:13:39;78.03;;;22.10;;
54929;SDS011;40833;53.238;6.576;2023-03-21T02:16:12;82.40;;;22.87;;
54929;SDS011;40833;53.238;6.576;2023-03-21T02:27:36;68.70;;;21.87;;
54929;SDS011;40833;53.238;6.576;2023-03-21T02:49:11;55.80;;;22.07;;
54929;SDS011;40833;53.238;6.576;2023-03-21T02:51:51;55.53;;;22.87;;
54929;SDS011;40833;53.238;6.576;2023-03-21T02:54:18;55.63;;;21.93;;
54929;SDS011;40833;53.238;6.576;2023-03-21T02:56:47;48.03;;;21.00;;
54929;SDS011;40833;53.238;6.576;2023-03-21T02:59:14;48.87;;;20.83;;
54929;SDS011;40833;53.238;6.576;2023-03-21T03:01:41;49.83;;;20.67;;
54929;SDS011;40833;53.238;6.576;2023-03-21T03:04:20;52.67;;;21.90;;
54929;SDS011;40833;53.238;6.576;2023-03-21T03:12:10;43.00;;;20.23;;
54929;SDS011;40833;53.238;6.576;2023-03-21T03:18:06;41.37;;;19.30;;
54929;SDS011;40833;53.238;6.576;2023-03-21T03:20:54;43.40;;;20.33;;
54929;SDS011;40833;53.238;6.576;2023-03-21T03:23:34;39.88;;;20.88;;
54929;SDS011;40833;53.238;6.576;2023-03-21T03:26:16;42.43;;;20.73;;
54929;SDS011;40833;53.238;6.576;2023-03-21T03:28:53;36.93;;;19.70;;
54929;SDS011;40833;53.238;6.576;2023-03-21T03:31:24;38.53;;;19.83;;
54929;SDS011;40833;53.238;6.576;2023-03-21T03:33:55;37.43;;;19.47;;
54929;SDS011;40833;53.238;6.576;2023-03-21T03:36:26;36.07;;;19.87;;
54929;SDS011;40833;53.238;6.576;2023-03-21T03:38:56;37.72;;;19.38;;
54929;SDS011;40833;53.238;6.576;2023-03-21T03:41:27;38.20;;;20.00;;
54929;SDS011;40833;53.238;6.576;2023-03-21T03:43:54;34.10;;;19.57;;
54929;SDS011;40833;53.238;6.576;2023-03-21T03:46:30;34.47;;;20.13;;
54929;SDS011;40833;53.238;6.576;2023-03-21T03:49:07;38.40;;;20.03;;
54929;SDS011;40833;53.238;6.576;2023-03-21T03:51:53;42.57;;;19.60;;
54929;SDS011;40833;53.238;6.576;2023-03-21T03:54:28;41.03;;;20.93;;
54929;SDS011;40833;53.238;6.576;2023-03-21T03:56:57;38.03;;;20.30;;
54929;SDS011;40833;53.238;6.576;2023-03-21T03:59:23;39.27;;;20.70;;
54929;SDS011;40833;53.238;6.576;2023-03-21T04:01:50;40.47;;;19.30;;
54929;SDS011;40833;53.238;6.576;2023-03-21T04:04:16;40.47;;;19.63;;
54929;SDS011;40833;53.238;6.576;2023-03-21T04:06:42;39.93;;;19.70;;
54929;SDS011;40833;53.238;6.576;2023-03-21T04:09:10;40.40;;;18.53;;
54929;SDS011;40833;53.238;6.576;2023-03-21T04:11:35;39.27;;;18.70;;
54929;SDS011;40833;53.238;6.576;2023-03-21T04:14:02;40.00;;;19.50;;
54929;SDS011;40833;53.238;6.576;2023-03-21T04:16:28;41.20;;;18.23;;
54929;SDS011;40833;53.238;6.576;2023-03-21T04:18:56;42.10;;;18.80;;
54929;SDS011;40833;53.238;6.576;2023-03-21T04:21:22;43.37;;;20.17;;
54929;SDS011;40833;53.238;6.576;2023-03-21T04:23:48;36.13;;;18.13;;
54929;SDS011;40833;53.238;6.576;2023-03-21T04:26:13;43.07;;;18.33;;
54929;SDS011;40833;53.238;6.576;2023-03-21T04:28:39;39.83;;;17.37;;
54929;SDS011;40833;53.238;6.576;2023-03-21T04:31:06;41.47;;;18.27;;
54929;SDS011;40833;53.238;6.576;2023-03-21T04:33:33;44.53;;;18.93;;
54929;SDS011;40833;53.238;6.576;2023-03-21T04:36:03;36.60;;;17.23;;
54929;SDS011;40833;53.238;6.576;2023-03-21T04:38:42;41.77;;;17.97;;
54929;SDS011;40833;53.238;6.576;2023-03-21T04:41:12;36.30;;;17.43;;
54929;SDS011;40833;53.238;6.576;2023-03-21T04:43:38;35.07;;;16.23;;
54929;SDS011;40833;53.238;6.576;2023-03-21T04:46:03;33.37;;;16.03;;
54929;SDS011;40833;53.238;6.576;2023-03-21T04:48:30;34.10;;;16.13;;
54929;SDS011;40833;53.238;6.576;2023-03-21T04:50:55;36.90;;;15.80;;
54929;SDS011;40833;53.238;6.576;2023-03-21T04:53:21;35.43;;;15.97;;
54929;SDS011;40833;53.238;6.576;2023-03-21T04:55:47;33.07;;;14.83;;
54929;SDS011;40833;53.238;6.576;2023-03-21T04:58:12;34.17;;;14.70;;
54929;SDS011;40833;53.238;6.576;2023-03-21T05:00:38;40.20;;;15.07;;
54929;SDS011;40833;53.238;6.576;2023-03-21T05:03:04;35.70;;;15.37;;
54929;SDS011;40833;53.238;6.576;2023-03-21T05:05:34;29.20;;;13.40;;
54929;SDS011;40833;53.238;6.576;2023-03-21T05:08:01;33.27;;;14.13;;
54929;SDS011;40833;53.238;6.576;2023-03-21T05:10:27;32.73;;;13.80;;
54929;SDS011;40833;53.238;6.576;2023-03-21T05:12:53;41.83;;;14.60;;
54929;SDS011;40833;53.238;6.576;2023-03-21T05:15:18;34.97;;;13.97;;
54929;SDS011;40833;53.238;6.576;2023-03-21T05:17:44;32.20;;;13.40;;
54929;SDS011;40833;53.238;6.576;2023-03-21T05:20:12;33.63;;;14.77;;
54929;SDS011;40833;53.238;6.576;2023-03-21T05:22:41;30.93;;;14.37;;
54929;SDS011;40833;53.238;6.576;2023-03-21T05:25:10;31.93;;;14.77;;
54929;SDS011;40833;53.238;6.576;2023-03-21T05:27:37;37.13;;;14.70;;
54929;SDS011;40833;53.238;6.576;2023-03-21T05:30:10;44.13;;;15.43;;
54929;SDS011;40833;53.238;6.576;2023-03-21T05:32:39;37.23;;;14.90;;
54929;SDS011;40833;53.238;6.576;2023-03-21T05:35:05;36.73;;;15.77;;
54929;SDS011;40833;53.238;6.576;2023-03-21T05:37:31;32.50;;;15.47;;
54929;SDS011;40833;53.238;6.576;2023-03-21T05:39:57;41.87;;;15.80;;
54929;SDS011;40833;53.238;6.576;2023-03-21T05:42:22;36.10;;;15.53;;
54929;SDS011;40833;53.238;6.576;2023-03-21T05:44:49;38.73;;;15.13;;
54929;SDS011;40833;53.238;6.576;2023-03-21T05:47:15;34.30;;;16.30;;
54929;SDS011;40833;53.238;6.576;2023-03-21T05:49:43;39.67;;;16.53;;
54929;SDS011;40833;53.238;6.576;2023-03-21T05:52:10;38.10;;;16.47;;
54929;SDS011;40833;53.238;6.576;2023-03-21T05:54:36;39.27;;;15.47;;
54929;SDS011;40833;53.238;6.576;2023-03-21T05:57:02;35.43;;;15.47;;
54929;SDS011;40833;53.238;6.576;2023-03-21T05:59:28;38.87;;;17.53;;
54929;SDS011;40833;53.238;6.576;2023-03-21T06:01:54;35.23;;;15.43;;
54929;SDS011;40833;53.238;6.576;2023-03-21T06:04:20;33.97;;;15.27;;
54929;SDS011;40833;53.238;6.576;2023-03-21T06:06:45;40.43;;;15.30;;
54929;SDS011;40833;53.238;6.576;2023-03-21T06:09:11;31.13;;;14.33;;
54929;SDS011;40833;53.238;6.576;2023-03-21T06:11:37;30.23;;;13.93;;
54929;SDS011;40833;53.238;6.576;2023-03-21T06:14:08;31.80;;;14.23;;
54929;SDS011;40833;53.238;6.576;2023-03-21T06:16:33;33.10;;;13.73;;
54929;SDS011;40833;53.238;6.576;2023-03-21T06:18:59;26.07;;;12.47;;
54929;SDS011;40833;53.238;6.576;2023-03-21T06:21:25;24.37;;;12.80;;
54929;SDS011;40833;53.238;6.576;2023-03-21T06:23:50;25.77;;;12.67;;
54929;SDS011;40833;53.238;6.576;2023-03-21T06:26:17;25.40;;;12.83;;
54929;SDS011;40833;53.238;6.576;2023-03-21T06:28:50;24.27;;;12.57;;
54929;SDS011;40833;53.238;6.576;2023-03-21T06:31:17;25.40;;;12.67;;
54929;SDS011;40833;53.238;6.576;2023-03-21T06:33:47;22.30;;;12.33;;
54929;SDS011;40833;53.238;6.576;2023-03-21T06:36:14;23.73;;;11.57;;
54929;SDS011;40833;53.238;6.576;2023-03-21T06:38:40;21.47;;;11.93;;
54929;SDS011;40833;53.238;6.576;2023-03-21T06:41:05;22.50;;;11.83;;
54929;SDS011;40833;53.238;6.576;2023-03-21T06:43:32;23.17;;;11.30;;
54929;SDS011;40833;53.238;6.576;2023-03-21T06:45:58;20.77;;;12.43;;
54929;SDS011;40833;53.238;6.576;2023-03-21T06:48:25;26.73;;;12.83;;
54929;SDS011;40833;53.238;6.576;2023-03-21T06:50:52;24.00;;;12.63;;
54929;SDS011;40833;53.238;6.576;2023-03-21T06:53:19;24.63;;;13.10;;
54929;SDS011;40833;53.238;6.576;2023-03-21T06:55:54;25.97;;;13.10;;
54929;SDS011;40833;53.238;6.576;2023-03-21T06:58:21;30.80;;;13.70;;
54929;SDS011;40833;53.238;6.576;2023-03-21T07:00:47;24.77;;;13.13;;
54929;SDS011;40833;53.238;6.576;2023-03-21T07:03:14;28.97;;;14.03;;
54929;SDS011;40833;53.238;6.576;2023-03-21T07:05:40;27.40;;;14.40;;
54929;SDS011;40833;53.238;6.576;2023-03-21T07:08:06;23.87;;;13.43;;
54929;SDS011;40833;53.238;6.576;2023-03-21T07:10:41;26.58;;;13.45;;
54929;SDS011;40833;53.238;6.576;2023-03-21T07:13:09;24.87;;;13.60;;
54929;SDS011;40833;53.238;6.576;2023-03-21T07:15:34;25.73;;;13.53;;
54929;SDS011;40833;53.238;6.576;2023-03-21T07:18:02;30.57;;;13.77;;
54929;SDS011;40833;53.238;6.576;2023-03-21T07:20:28;21.73;;;12.73;;
54929;SDS011;40833;53.238;6.576;2023-03-21T07:22:55;25.33;;;13.17;;
54929;SDS011;40833;53.238;6.576;2023-03-21T07:25:21;22.10;;;12.57;;
54929;SDS011;40833;53.238;6.576;2023-03-21T07:27:46;24.37;;;13.33;;
54929;SDS011;40833;53.238;6.576;2023-03-21T07:30:12;21.57;;;12.80;;
54929;SDS011;40833;53.238;6.576;2023-03-21T07:32:39;19.80;;;13.53;;
54929;SDS011;40833;53.238;6.576;2023-03-21T07:35:05;19.90;;;13.23;;
54929;SDS011;40833;53.238;6.576;2023-03-21T07:37:32;22.73;;;13.20;;
54929;SDS011;40833;53.238;6.576;2023-03-21T07:39:58;22.97;;;13.10;;
54929;SDS011;40833;53.238;6.576;2023-03-21T07:42:23;21.20;;;13.13;;
54929;SDS011;40833;53.238;6.576;2023-03-21T07:44:49;20.63;;;13.03;;
54929;SDS011;40833;53.238;6.576;2023-03-21T07:47:16;19.63;;;12.27;;
54929;SDS011;40833;53.238;6.576;2023-03-21T07:49:42;16.63;;;11.43;;
54929;SDS011;40833;53.238;6.576;2023-03-21T07:52:08;19.50;;;11.83;;
54929;SDS011;40833;53.238;6.576;2023-03-21T07:54:33;15.63;;;10.63;;
54929;SDS011;40833;53.238;6.576;2023-03-21T07:56:59;14.63;;;10.67;;
54929;SDS011;40833;53.238;6.576;2023-03-21T07:59:25;13.80;;;10.37;;
54929;SDS011;40833;53.238;6.576;2023-03-21T08:01:51;13.50;;;10.30;;
54929;SDS011;40833;53.238;6.576;2023-03-21T08:04:16;14.70;;;10.03;;
54929;SDS011;40833;53.238;6.576;2023-03-21T08:06:42;15.00;;;9.20;;
54929;SDS011;40833;53.238;6.576;2023-03-21T08:09:08;11.17;;;8.37;;
54929;SDS011;40833;53.238;6.576;2023-03-21T08:11:33;12.73;;;9.17;;
54929;SDS011;40833;53.238;6.576;2023-03-21T08:13:59;14.47;;;9.60;;
54929;SDS011;40833;53.238;6.576;2023-03-21T08:16:25;10.20;;;8.00;;
54929;SDS011;40833;53.238;6.576;2023-03-21T08:18:52;9.23;;;7.97;;
54929;SDS011;40833;53.238;6.576;2023-03-21T08:21:17;10.87;;;8.80;;
54929;SDS011;40833;53.238;6.576;2023-03-21T08:23:43;11.33;;;8.20;;
54929;SDS011;40833;53.238;6.576;2023-03-21T08:26:09;10.20;;;8.13;;
54929;SDS011;40833;53.238;6.576;2023-03-21T08:28:35;7.87;;;7.07;;
54929;SDS011;40833;53.238;6.576;2023-03-21T08:31:07;7.53;;;6.70;;
54929;SDS011;40833;53.238;6.576;2023-03-21T08:33:34;8.57;;;7.30;;
54929;SDS011;40833;53.238;6.576;2023-03-21T08:36:00;8.27;;;7.07;;
54929;SDS011;40833;53.238;6.576;2023-03-21T08:38:26;8.03;;;7.17;;
54929;SDS011;40833;53.238;6.576;2023-03-21T08:40:57;8.03;;;6.87;;
54929;SDS011;40833;53.238;6.576;2023-03-21T08:43:24;8.30;;;7.23;;
54929;SDS011;40833;53.238;6.576;2023-03-21T08:45:51;10.87;;;7.17;;
54929;SDS011;40833;53.238;6.576;2023-03-21T08:48:17;7.77;;;6.23;;
54929;SDS011;40833;53.238;6.576;2023-03-21T08:50:43;7.53;;;6.57;;
54929;SDS011;40833;53.238;6.576;2023-03-21T08:53:09;7.23;;;6.53;;
54929;SDS011;40833;53.238;6.576;2023-03-21T08:55:35;7.23;;;6.20;;
54929;SDS011;40833;53.238;6.576;2023-03-21T08:58:01;7.00;;;6.30;;
54929;SDS011;40833;53.238;6.576;2023-03-21T09:00:27;7.33;;;6.40;;
54929;SDS011;40833;53.238;6.576;2023-03-21T09:02:53;6.80;;;5.63;;
54929;SDS011;40833;53.238;6.576;2023-03-21T09:05:20;6.87;;;5.80;;
54929;SDS011;40833;53.238;6.576;2023-03-21T09:07:46;7.03;;;6.30;;
54929;SDS011;40833;53.238;6.576;2023-03-21T09:10:17;5.90;;;5.20;;
54929;SDS011;40833;53.238;6.576;2023-03-21T09:12:45;5.60;;;4.97;;
54929;SDS011;40833;53.238;6.576;2023-03-21T09:15:12;5.53;;;5.03;;
54929;SDS011;40833;53.238;6.576;2023-03-21T09:17:38;8.57;;;5.60;;
54929;SDS011;40833;53.238;6.576;2023-03-21T09:20:11;11.70;;;6.23;;
54929;SDS011;40833;53.238;6.576;2023-03-21T09:22:49;9.27;;;5.97;;
54929;SDS011;40833;53.238;6.576;2023-03-21T09:25:19;10.20;;;6.17;;
54929;SDS011;40833;53.238;6.576;2023-03-21T09:27:45;12.53;;;7.17;;
54929;SDS011;40833;53.238;6.576;2023-03-21T09:30:12;12.20;;;7.07;;
54929;SDS011;40833;53.238;6.576;2023-03-21T09:32:43;8.90;;;7.18;;
54929;SDS011;40833;53.238;6.576;2023-03-21T09:35:12;14.13;;;8.83;;
54929;SDS011;40833;53.238;6.576;2023-03-21T09:37:40;13.17;;;8.83;;
54929;SDS011;40833;53.238;6.576;2023-03-21T09:40:16;16.97;;;9.27;;
54929;SDS011;40833;53.238;6.576;2023-03-21T09:42:48;15.23;;;9.73;;
54929;SDS011;40833;53.238;6.576;2023-03-21T09:45:28;19.80;;;10.97;;
54929;SDS011;40833;53.238;6.576;2023-03-21T09:48:00;19.57;;;10.83;;
54929;SDS011;40833;53.238;6.576;2023-03-21T09:50:33;16.43;;;11.20;;
54929;SDS011;40833;53.238;6.576;2023-03-21T09:53:03;15.73;;;11.03;;
54929;SDS011;40833;53.238;6.576;2023-03-21T09:55:41;16.90;;;10.83;;
54929;SDS011;40833;53.238;6.576;2023-03-21T09:58:18;16.73;;;11.13;;
54929;SDS011;40833;53.238;6.576;2023-03-21T10:00:50;15.88;;;10.20;;
54929;SDS011;40833;53.238;6.576;2023-03-21T10:03:22;17.73;;;11.07;;
54929;SDS011;40833;53.238;6.576;2023-03-21T10:05:52;17.17;;;12.27;;
54929;SDS011;40833;53.238;6.576;2023-03-21T10:08:29;25.60;;;14.13;;
54929;SDS011;40833;53.238;6.576;2023-03-21T10:11:05;21.03;;;13.47;;
54929;SDS011;40833;53.238;6.576;2023-03-21T10:14:03;21.90;;;14.23;;
54929;SDS011;40833;53.238;6.576;2023-03-21T10:16:35;21.30;;;14.03;;
54929;SDS011;40833;53.238;6.576;2023-03-21T10:19:15;20.73;;;13.53;;
54929;SDS011;40833;53.238;6.576;2023-03-21T10:21:43;25.57;;;14.47;;
54929;SDS011;40833;53.238;6.576;2023-03-21T10:24:13;23.37;;;14.10;;
54929;SDS011;40833;53.238;6.576;2023-03-21T10:26:49;22.73;;;14.10;;
54929;SDS011;40833;53.238;6.576;2023-03-21T10:29:17;22.07;;;14.50;;
54929;SDS011;40833;53.238;6.576;2023-03-21T10:31:47;26.20;;;14.33;;
54929;SDS011;40833;53.238;6.576;2023-03-21T10:34:26;22.63;;;14.57;;
54929;SDS011;40833;53.238;6.576;2023-03-21T10:36:58;21.93;;;14.03;;
54929;SDS011;40833;53.238;6.576;2023-03-21T10:39:27;22.33;;;13.63;;
54929;SDS011;40833;53.238;6.576;2023-03-21T10:41:56;24.73;;;13.37;;
54929;SDS011;40833;53.238;6.576;2023-03-21T10:44:22;20.33;;;13.33;;
54929;SDS011;40833;53.238;6.576;2023-03-21T10:46:58;25.53;;;14.77;;
54929;SDS011;40833;53.238;6.576;2023-03-21T10:49:32;27.33;;;14.77;;
54929;SDS011;40833;53.238;6.576;2023-03-21T10:51:59;23.33;;;13.93;;
54929;SDS011;40833;53.238;6.576;2023-03-21T10:54:30;17.37;;;12.90;;
54929;SDS011;40833;53.238;6.576;2023-03-21T10:56:57;20.43;;;13.03;;
54929;SDS011;40833;53.238;6.576;2023-03-21T11:02:18;20.87;;;13.10;;
54929;SDS011;40833;53.238;6.576;2023-03-21T11:04:49;23.40;;;14.37;;
54929;SDS011;40833;53.238;6.576;2023-03-21T11:07:17;20.17;;;12.93;;
54929;SDS011;40833;53.238;6.576;2023-03-21T11:09:45;24.77;;;14.40;;
54929;SDS011;40833;53.238;6.576;2023-03-21T11:12:27;21.83;;;13.67;;
54929;SDS011;40833;53.238;6.576;2023-03-21T11:15:20;24.33;;;14.27;;
54929;SDS011;40833;53.238;6.576;2023-03-21T11:17:54;20.80;;;13.80;;
54929;SDS011;40833;53.238;6.576;2023-03-21T11:20:24;20.23;;;13.37;;
54929;SDS011;40833;53.238;6.576;2023-03-21T11:22:54;18.67;;;12.37;;
54929;SDS011;40833;53.238;6.576;2023-03-21T11:25:22;21.07;;;13.07;;
54929;SDS011;40833;53.238;6.576;2023-03-21T11:28:06;21.27;;;12.43;;
54929;SDS011;40833;53.238;6.576;2023-03-21T11:30:36;19.85;;;12.10;;
54929;SDS011;40833;53.238;6.576;2023-03-21T11:33:13;17.97;;;10.50;;
54929;SDS011;40833;53.238;6.576;2023-03-21T11:35:38;15.83;;;9.77;;
54929;SDS011;40833;53.238;6.576;2023-03-21T11:38:04;19.07;;;10.03;;
54929;SDS011;40833;53.238;6.576;2023-03-21T11:40:56;14.17;;;8.47;;
54929;SDS011;40833;53.238;6.576;2023-03-21T11:43:28;17.57;;;9.20;;
54929;SDS011;40833;53.238;6.576;2023-03-21T11:46:11;14.67;;;9.17;;
54929;SDS011;40833;53.238;6.576;2023-03-21T11:48:42;14.33;;;9.00;;
54929;SDS011;40833;53.238;6.576;2023-03-21T11:54:11;15.83;;;7.80;;
54929;SDS011;40833;53.238;6.576;2023-03-21T11:56:48;15.37;;;7.67;;
54929;SDS011;40833;53.238;6.576;2023-03-21T11:59:27;12.90;;;7.57;;
54929;SDS011;40833;53.238;6.576;2023-03-21T12:07:50;16.93;;;8.33;;
54929;SDS011;40833;53.238;6.576;2023-03-21T12:10:29;13.00;;;7.80;;
54929;SDS011;40833;53.238;6.576;2023-03-21T12:19:26;18.60;;;8.27;;
54929;SDS011;40833;53.238;6.576;2023-03-21T12:27:29;16.20;;;7.60;;
54929;SDS011;40833;53.238;6.576;2023-03-21T12:30:19;16.73;;;7.93;;
54929;SDS011;40833;53.238;6.576;2023-03-21T12:38:17;11.93;;;7.13;;
54929;SDS011;40833;53.238;6.576;2023-03-21T12:41:25;11.97;;;7.60;;
54929;SDS011;40833;53.238;6.576;2023-03-21T12:44:04;13.53;;;6.53;;
54929;SDS011;40833;53.238;6.576;2023-03-21T12:49:13;11.63;;;7.27;;
54929;SDS011;40833;53.238;6.576;2023-03-21T12:52:02;15.13;;;7.87;;
54929;SDS011;40833;53.238;6.576;2023-03-21T12:57:37;13.03;;;7.23;;
54929;SDS011;40833;53.238;6.576;2023-03-21T13:00:21;11.20;;;7.03;;
54929;SDS011;40833;53.238;6.576;2023-03-21T13:02:53;15.13;;;7.03;;
54929;SDS011;40833;53.238;6.576;2023-03-21T13:05:28;14.10;;;6.90;;
54929;SDS011;40833;53.238;6.576;2023-03-21T13:08:00;14.83;;;6.77;;
54929;SDS011;40833;53.238;6.576;2023-03-21T13:10:31;19.67;;;7.77;;
54929;SDS011;40833;53.238;6.576;2023-03-21T13:18:11;18.37;;;7.67;;
54929;SDS011;40833;53.238;6.576;2023-03-21T13:20:54;11.77;;;6.53;;
54929;SDS011;40833;53.238;6.576;2023-03-21T13:23:24;11.87;;;6.63;;
54929;SDS011;40833;53.238;6.576;2023-03-21T13:25:58;17.37;;;7.60;;
54929;SDS011;40833;53.238;6.576;2023-03-21T13:28:26;12.67;;;6.37;;
54929;SDS011;40833;53.238;6.576;2023-03-21T13:31:02;9.37;;;6.63;;
54929;SDS011;40833;53.238;6.576;2023-03-21T13:33:44;14.37;;;6.47;;
54929;SDS011;40833;53.238;6.576;2023-03-21T13:36:13;17.43;;;7.23;;
54929;SDS011;40833;53.238;6.576;2023-03-21T13:38:43;10.57;;;6.27;;
54929;SDS011;40833;53.238;6.576;2023-03-21T13:41:27;11.17;;;6.10;;
54929;SDS011;40833;53.238;6.576;2023-03-21T13:43:55;15.47;;;6.70;;
54929;SDS011;40833;53.238;6.576;2023-03-21T13:49:12;11.83;;;6.10;;
54929;SDS011;40833;53.238;6.576;2023-03-21T13:51:53;13.53;;;6.10;;
54929;SDS011;40833;53.238;6.576;2023-03-21T13:56:52;15.50;;;6.30;;
54929;SDS011;40833;53.238;6.576;2023-03-21T13:59:40;13.97;;;6.93;;
54929;SDS011;40833;53.238;6.576;2023-03-21T14:04:39;13.45;;;6.90;;
54929;SDS011;40833;53.238;6.576;2023-03-21T14:07:08;15.10;;;7.17;;
54929;SDS011;40833;53.238;6.576;2023-03-21T14:09:45;16.33;;;6.57;;
54929;SDS011;40833;53.238;6.576;2023-03-21T14:12:13;17.53;;;7.33;;
54929;SDS011;40833;53.238;6.576;2023-03-21T14:14:44;17.07;;;6.70;;
54929;SDS011;40833;53.238;6.576;2023-03-21T14:17:23;15.80;;;6.67;;
54929;SDS011;40833;53.238;6.576;2023-03-21T14:20:05;13.50;;;6.97;;
54929;SDS011;40833;53.238;6.576;2023-03-21T14:22:41;19.97;;;7.33;;
54929;SDS011;40833;53.238;6.576;2023-03-21T14:25:11;14.63;;;6.77;;
54929;SDS011;40833;53.238;6.576;2023-03-21T14:27:50;17.63;;;7.07;;
54929;SDS011;40833;53.238;6.576;2023-03-21T14:30:20;12.40;;;6.67;;
54929;SDS011;40833;53.238;6.576;2023-03-21T14:32:59;15.40;;;7.13;;
54929;SDS011;40833;53.238;6.576;2023-03-21T14:35:29;15.47;;;6.27;;
54929;SDS011;40833;53.238;6.576;2023-03-21T14:37:59;13.37;;;6.70;;
54929;SDS011;40833;53.238;6.576;2023-03-21T14:40:27;10.87;;;6.23;;
54929;SDS011;40833;53.238;6.576;2023-03-21T14:42:54;11.97;;;6.47;;
54929;SDS011;40833;53.238;6.576;2023-03-21T14:45:21;12.80;;;7.30;;
54929;SDS011;40833;53.238;6.576;2023-03-21T14:47:55;14.30;;;6.57;;
54929;SDS011;40833;53.238;6.576;2023-03-21T14:53:16;11.87;;;6.63;;
54929;SDS011;40833;53.238;6.576;2023-03-21T14:56:07;12.03;;;6.43;;
54929;SDS011;40833;53.238;6.576;2023-03-21T14:58:41;14.17;;;6.83;;
54929;SDS011;40833;53.238;6.576;2023-03-21T15:01:13;11.80;;;6.30;;
54929;SDS011;40833;53.238;6.576;2023-03-21T15:03:44;11.80;;;6.83;;
54929;SDS011;40833;53.238;6.576;2023-03-21T15:06:11;15.03;;;6.90;;
54929;SDS011;40833;53.238;6.576;2023-03-21T15:08:38;12.53;;;6.50;;
54929;SDS011;40833;53.238;6.576;2023-03-21T15:11:05;11.33;;;7.00;;
54929;SDS011;40833;53.238;6.576;2023-03-21T15:13:36;13.00;;;7.13;;
54929;SDS011;40833;53.238;6.576;2023-03-21T15:16:10;13.80;;;7.00;;
54929;SDS011;40833;53.238;6.576;2023-03-21T15:18:38;16.50;;;7.70;;
54929;SDS011;40833;53.238;6.576;2023-03-21T15:21:09;18.63;;;6.80;;
54929;SDS011;40833;53.238;6.576;2023-03-21T15:23:46;11.97;;;7.40;;
54929;SDS011;40833;53.238;6.576;2023-03-21T15:26:16;18.10;;;7.50;;
54929;SDS011;40833;53.238;6.576;2023-03-21T15:28:44;15.73;;;6.77;;
54929;SDS011;40833;53.238;6.576;2023-03-21T15:31:14;16.77;;;6.97;;
54929;SDS011;40833;53.238;6.576;2023-03-21T15:33:46;10.63;;;7.30;;
54929;SDS011;40833;53.238;6.576;2023-03-21T15:36:16;16.83;;;9.03;;
54929;SDS011;40833;53.238;6.576;2023-03-21T15:38:45;16.20;;;7.70;;
54929;SDS011;40833;53.238;6.576;2023-03-21T15:43:59;16.00;;;7.65;;
54929;SDS011;40833;53.238;6.576;2023-03-21T15:46:33;14.73;;;7.67;;
54929;SDS011;40833;53.238;6.576;2023-03-21T15:51:45;18.07;;;8.20;;
54929;SDS011;40833;53.238;6.576;2023-03-21T15:56:55;14.03;;;7.60;;
54929;SDS011;40833;53.238;6.576;2023-03-21T15:59:26;16.63;;;8.57;;
54929;SDS011;40833;53.238;6.576;2023-03-21T16:01:55;13.13;;;8.23;;
54929;SDS011;40833;53.238;6.576;2023-03-21T16:04:22;17.13;;;7.33;;
54929;SDS011;40833;53.238;6.576;2023-03-21T16:06:55;10.37;;;7.70;;
54929;SDS011;40833;53.238;6.576;2023-03-21T16:09:26;13.47;;;7.60;;
54929;SDS011;40833;53.238;6.576;2023-03-21T16:12:02;16.03;;;7.93;;
54929;SDS011;40833;53.238;6.576;2023-03-21T16:14:32;14.77;;;8.10;;
54929;SDS011;40833;53.238;6.576;2023-03-21T16:16:58;17.43;;;8.77;;
54929;SDS011;40833;53.238;6.576;2023-03-21T16:19:23;14.07;;;7.90;;
54929;SDS011;40833;53.238;6.576;2023-03-21T16:21:51;16.93;;;8.63;;
54929;SDS011;40833;53.238;6.576;2023-03-21T16:24:17;13.13;;;7.70;;